メインページ
METAR-TAF:

METAR-TAF

空港 :

Knox County Regional Airport

Rockland, メイン州, アメリカ合衆国

緯度: 44-04N, 経度: 069-06W, 海抜: 17m

現時点の気象観測

当レポートは21分前の15:56(UTC)に作成
変向風 3kt
気温 -12°C
湿度 56%
気圧 1032 hPa
視程: 16.1km
晴天

METAR: KRKD 181556Z AUTO VRB03KT 10SM CLR M12/M19 A3047 RMK AO2 SLP319 T11221194 FZRANO

時間: 11:17 (16:17 UTC)

予報

当レポートは4時間44分前の11:33(UTC)に作成
予報は18日の 12時(UTC)から 19日の 12時(UTC)まで有効
変向風 3kt
視程: 10km
高度25000ftの雲は散在している
18日の 2000時(UTC)から
南東の風 5kt
視程: 10km
高度7000ftの千切れ雲あり
19日の 0000時(UTC)から
東/南東の風 9kt
視程: 4.8km
高度1200ftの曇り
小雪, 靄
19日の 0500時(UTC)から
の風 10kt、最大16ktの突風を伴う
視程: 1.6km
高度400ftの曇り
小雪, 靄

TAF: KRKD 181133Z 1812/1912 VRB03KT P6SM SCT250 FM182000 14005KT P6SM BKN070 FM190000 11009KT 3SM -SN BR OVC012 FM190500 09010G16KT 1SM -SN BR OVC004 AMD LTD TO CLD VIS AND WIND

4,000以上の空港の気象観測と天気予報(METAR報とTAF報)

利用可能な観測所は地図上に黄色い丸と赤い丸で示す。

丸の上にカーソルを重ねると観測所名を参照できる。

次にクリックすると気象観測と天気予報を参照できる。

マップの切り替え:黒色「×」印の緑ボタンをクリックして拡大、「-」印の緑ボタンをクリックして縮小、緑色の三角印をクリックして隣りの地図に切り替え


METAR-TAF: